메인 페이지
METAR-TAF:

METAR-TAF

공항 :

아마다바드, 인도

위도: 23-04N, 경도: 072-38E, 고도: 55m

현재 날씨관측

예보는 25분 전, 00:00시(UTC)에 발표되었습니다.
무풍
온도 27°C
습도 74%
기압 1003 hPa
시정: 4000m
고도 8000ft 상공 구름 조금
연무

METAR: VAAH 220000Z 00000KT 4000 HZ FEW080 27/22 Q1003 NOSIG

시각: 05:55 (00:25 UTC)

예보

예보는 1 시간 25분 전, 23:00시(UTC)에 발표되었습니다.
예보 대상 시간: 22일 00시부터 23일 06시까지 (UTC)
북동3kt
시정: 4000m
고도 2000ft 상공 구름 보통
고도 8000ft 상공 구름 보통
전환 중
22일 01시부터 22일 03시까지 (UTC)
북서5kt
시정: 2000m
고도 2000ft 상공 구름 보통
고도 8000ft 상공 구름 보통
전환 중
22일 04시부터 22일 06시까지 (UTC)
서북서6kt
시정: 5000m
전환 중
22일 12시부터 22일 14시까지 (UTC)
7kt
시정: 4000m
고도 2000ft 상공 구름 보통
고도 8000ft 상공 구름 많음
전환 중
23일 01시부터 23일 03시까지 (UTC)
시정: 2000m
전환 중
23일 04시부터 23일 06시까지 (UTC)
북서8kt
시정: 5000m
고도 2000ft 상공 구름 보통
고도 8000ft 상공 구름 많음
연무, 약한비

TAF: VAAH 212300Z 2200/2306 05003KT 4000 HZ-RA SCT020 SCT080 BECMG 2201/2203 32005KT 2000 HZ-RA SCT020 SCT080 BECMG 2204/2206 29006KT 5000 HZ-RA BECMG 2212/2214 28007KT 4000 HZ-RA SCT020 BKN080 BECMG 2301/2303 29005 2000 HZ-RA BECMG 2304/2306 32008KT 5000 HZ -RA SCT020 BKN080

4,000개 이상의 공항 관측 자료 및 예보 (METAR 및 TAF 보고).

지도상에서 검색 가능한 기상관측소가 노란 점과 빨간 점으로 표시되어 있습니다.

기상관측소 명을 보려면 표시 위로 마우스를 이동하세요.

날씨 관측과 예보를 보려면 클릭하세요.

지도 변경 : 확대하려면 엑스 표시가 있는 녹색 버튼, 축소하려면 빼기 표시가 있는 녹색 버튼, 다음 페이지의 지도를 보려면 녹색 화살표를 클릭하세요.


METAR-TAF: